x

Yucatan Basin - 120 Nm Ese Of Cozumel, Mx (42056) Wave Buoy

8:50am - Sat 5th Sep 2015 All times are CDT. -5 hours from GMT.

  • Sig Wave height 1.0ft
  • Swell Direction
  • Peak Period 7s
  • Average Period 4s
  • Wind
    7mph, 9mph gusts
  • Sea Temp 87°f
  • Air Temp 85°f
  • Sea Pressure 1015.6mb
  •  Yucatan Basin - 120 Nm Ese Of Cozumel, Mx
  •  Yucatan Basin - 120 Nm Ese Of Cozumel, Mx

More Historic Weather Station data

Upgrade to MSW Pro to gain access to the past 30 days of data for over 8000 Wavebouys and Weather Stations around the globe.

Join Pro

Comparision Forecast

View Surf forecast
   
Sat 09/05 8:50am 1ft 7s 4s 7 9 mph 1015.6mb 87f 85f
7:50am 1.3ft 7s 4s 9 11 mph 1014.8mb 87f 85f
6:50am 1.3ft 7s 4s 7 9 mph 1014.1mb 87f 85f
5:50am 1.3ft 3s 4s 7
mph
1013.7mb 87f 84f
4:50am 1.3ft 7s 4s 7 9 mph 1013.4mb 87f 84f
3:50am 1.3ft 7s 4s 9 11 mph 1012.9mb 87f 84f
2:50am 1.3ft 7s 4s 9 11 mph 1013mb 87f 85f
1:50am 1.3ft 7s 4s 11
mph
1013.4mb 87f 85f
12:50am 1.3ft 8s 4s 11
mph
1014mb 87f 85f
Fri 09/04 11:50pm 1.6ft 3s 3s 11 13 mph 1014.4mb 87f 85f
10:50pm 1.6ft 7s 3s 13 16 mph 1014.8mb 87f 85f
9:50pm 1.6ft 8s 3s 13 16 mph 1014.6mb 87f 85f
8:50pm 1.3ft 7s 4s 13
mph
1014.2mb 87f 85f
7:50pm 1.3ft 8s 4s 11 13 mph 1013.2mb 87f 85f
6:50pm 1.3ft 8s 4s 13
mph
1012.6mb 87f 85f
5:50pm 1.3ft 8s 4s 11 13 mph 1012.4mb 87f 85f
4:50pm 1.3ft 8s 4s 11
mph
1012.3mb 87f 85f
3:50pm 1.3ft 6s 4s 7 9 mph 1012.6mb 88f 85f
2:50pm 1.6ft 7s 5s 9 11 mph 1013mb 88f 85f
1:50pm 1.3ft 6s 4s 9 11 mph 1013.5mb 88f 85f
12:50pm 1.3ft 7s 4s 11 13 mph 1014.2mb 88f 85f
11:50am 1.3ft 8s 5s 9 11 mph 1014.4mb 87f 85f
10:50am 1.3ft 7s 4s 7 11 mph 1014.5mb 87f 85f
9:50am 1.3ft 7s 4s 9 11 mph 1014.6mb 87f 85f
8:50am 1.3ft 8s 4s 9 11 mph 1014mb 87f 85f
7:50am 1.3ft 8s 4s 9
mph
1013.6mb 87f 85f
6:50am 1.3ft 8s 4s 7 9 mph 1013.1mb 87f 84f
5:50am 1.3ft 8s 4s 9
mph
1012.7mb 87f 84f
4:50am 1.3ft 8s 4s 7 9 mph 1012.3mb 87f 84f
3:50am 1.3ft 8s 4s 9 11 mph 1012.1mb 87f 84f
2:50am 1.3ft 8s 4s 9 11 mph 1012.4mb 87f 84f
1:50am 1.3ft 8s 4s 9
mph
1012.9mb 87f 85f
12:50am 1.3ft 8s 4s 9 11 mph 1013.2mb 87f 85f
Thu 09/03 11:50pm 1.3ft 8s 4s 9 11 mph 1013.5mb 87f 85f
10:50pm 1.3ft 8s 4s 9 11 mph 1013.8mb 87f 85f
9:50pm 1.6ft 8s 4s 11 13 mph 1013.3mb 87f 85f
8:50pm 1.6ft 8s 4s 11 13 mph 1012.9mb 87f 85f
7:50pm 1.6ft 8s 5s 9 11 mph 1012.5mb 87f 85f
6:50pm 1.6ft 8s 5s 11
mph
1012.2mb 87f 85f
5:50pm 2ft 8s 4s 7 9 mph 1012.2mb 87f 85f
4:50pm 1.6ft 8s 4s 9
mph
1012.3mb 87f 85f
3:50pm 2ft 5s 4s 9
mph
1012.4mb 87f 85f
2:50pm 2ft 6s 5s 9 11 mph 1012.7mb 87f 85f
1:50pm 2ft 8s 4s 11 13 mph 1013mb 87f 85f
12:50pm 2ft 8s 5s 11 13 mph 1013.6mb 87f 85f
11:50am 2ft 8s 5s 9 11 mph 1014.1mb 87f 85f
10:50am 2ft 8s 5s 9 11 mph 1014.4mb 87f 85f
9:50am 2ft 6s 5s 11 13 mph 1014.4mb 87f 85f
8:50am 2ft 8s 5s 11 13 mph 1014.1mb 87f 85f
7:50am 2ft 6s 5s 9 11 mph 1013.7mb 86f 85f
6:50am 2ft 8s 5s 7 9 mph 1013.3mb 86f 85f
5:50am 2ft 6s 5s 7 9 mph 1013.4mb 86f 85f
4:50am 2ft 7s 5s 11 13 mph 1013.3mb 86f 85f
3:50am 2ft 8s 5s 7 9 mph 1013.4mb 86f 85f
2:50am 2ft 8s 5s 4 7 mph 1013.7mb 87f 85f
1:50am 2.5ft 9s 5s 7 9 mph 1014.1mb 87f 85f
12:50am 2.5ft 8s 4s 9 11 mph 1014.6mb 87f 85f
Wed 09/02 11:50pm 2.5ft 8s 4s 11 13 mph 1014.9mb 87f 85f
10:50pm 2.5ft 8s 5s 11 13 mph 1015mb 87f 85f
9:50pm 2.5ft 8s 4s 11 13 mph 1014.8mb 87f 85f
8:50pm 2.5ft 8s 4s 13 16 mph 1014.4mb 87f 85f
7:50pm 2.5ft 6s 4s 13 16 mph 1013.3mb 87f 86f
6:50pm 2.5ft 6s 5s 11 16 mph 1013.3mb 87f 86f
5:50pm 2.5ft 6s 5s 11 13 mph 1013.5mb 87f 86f
4:50pm 2.5ft 6s 5s 9 11 mph 1013.3mb 88f 86f
3:50pm 2.5ft 6s 5s 9 11 mph 1013.8mb 88f 86f
2:50pm 2.5ft 7s 5s 11 13 mph 1014.1mb 88f 86f
1:50pm 2.5ft 7s 5s 7 9 mph 1015mb 88f 86f
12:50pm 2.5ft 7s 5s 7
mph
1015.9mb 88f 85f
11:50am 2.5ft 7s 5s 4 7 mph 1016.3mb 87f 85f
10:50am 2.5ft 7s 5s 7 9 mph 1016mb 87f 85f
9:50am 3ft 6s 5s 9 11 mph 1015.9mb 87f 85f
8:50am 3ft 7s 5s 9 11 mph 1016mb 86f 85f
7:50am 3ft 6s 5s 13 18 mph 1015.5mb 86f 85f
6:50am 3ft 7s 5s 13 16 mph 1015.4mb 86f 85f
5:50am 3.5ft 6s 5s 13 16 mph 1015.1mb 86f 85f
4:50am 3.5ft 6s 5s 16 18 mph 1014.5mb 86f 85f
3:50am 3.5ft 7s 5s 13 16 mph 1014.6mb 86f 85f
2:50am 3.5ft 6s 5s 13 16 mph 1014.9mb 86f 85f
1:50am 3.5ft 6s 5s 11 18 mph 1015.7mb 86f 85f
12:50am 4ft 6s 5s 13 16 mph 1016.1mb 86f 85f
Tue 09/01 11:50pm 4ft 7s 5s 13 16 mph 1016.5mb 86f 85f
10:50pm 3.5ft 6s 5s 16 18 mph 1016.7mb 86f 86f
9:50pm 3.5ft 6s 5s 13 16 mph 1016.5mb 86f 86f
8:50pm 3.5ft 7s 5s 13 18 mph 1016mb 86f 86f
7:50pm 3.5ft 7s 5s 13
mph
1015.3mb 86f 85f
6:50pm 3.5ft 6s 5s 11 13 mph 1014.5mb 86f 85f
5:50pm 4ft 7s 5s 11 13 mph 1013.8mb 86f 85f
4:50pm 4ft 6s 5s 13 16 mph 1013.7mb 87f 85f
3:50pm 3.5ft 6s 5s 9 11 mph 1013.7mb 86f 85f